createdAt,value
2018-12-07T00:02:23.705Z,0.23
2018-12-07T00:05:27.063Z,0.30
2018-12-07T00:08:30.387Z,0.80
2018-12-07T00:11:33.728Z,0.50
2018-12-07T00:14:37.145Z,0.50
2018-12-07T00:17:40.451Z,0.93
2018-12-07T00:20:43.804Z,0.30
2018-12-07T00:23:47.105Z,0.60
2018-12-07T00:26:50.461Z,0.50
2018-12-07T00:29:53.773Z,0.30
2018-12-07T00:32:58.107Z,0.40
2018-12-07T00:36:01.508Z,0.40
2018-12-07T00:39:07.584Z,1.97
2018-12-07T00:42:10.973Z,0.57
2018-12-07T00:45:14.286Z,0.87
2018-12-07T00:48:18.841Z,0.40
2018-12-07T00:51:22.146Z,0.20
2018-12-07T00:54:26.531Z,0.30
2018-12-07T00:57:29.842Z,0.20
2018-12-07T01:00:33.242Z,0.50
2018-12-07T01:03:36.642Z,0.50
2018-12-07T01:06:40.025Z,0.30
2018-12-07T01:09:43.382Z,0.30
2018-12-07T01:12:46.807Z,0.13
2018-12-07T01:15:50.118Z,1.37
2018-12-07T01:18:53.537Z,0.30
2018-12-07T01:21:56.870Z,0.85
2018-12-07T01:25:00.243Z,0.27
2018-12-07T01:28:03.598Z,0.30
2018-12-07T01:31:06.937Z,2.37
2018-12-07T01:34:10.349Z,0.33
2018-12-07T01:37:13.646Z,0.30
2018-12-07T01:43:35.671Z,1.60
2018-12-07T01:46:39.032Z,0.30
2018-12-07T01:49:42.420Z,0.20
2018-12-07T01:52:45.726Z,0.20
2018-12-07T01:55:49.110Z,0.50
2018-12-07T01:58:52.427Z,2.27
2018-12-07T02:01:55.743Z,0.73
2018-12-07T02:04:59.052Z,0.30
2018-12-07T02:08:02.624Z,0.17
2018-12-07T02:11:06.057Z,2.87
2018-12-07T02:14:09.957Z,0.10
2018-12-07T02:17:13.427Z,0.20
2018-12-07T02:20:17.678Z,0.40
2018-12-07T02:23:21.058Z,0.10
2018-12-07T02:26:24.608Z,0.20
2018-12-07T02:29:28.488Z,0.10
2018-12-07T02:32:32.012Z,0.20
2018-12-07T02:35:35.577Z,0.40
2018-12-07T02:38:38.893Z,0.30
2018-12-07T02:41:42.257Z,0.37
2018-12-07T02:44:45.619Z,0.17
2018-12-07T02:47:49.758Z,0.33
2018-12-07T02:50:53.164Z,0.27
2018-12-07T02:53:57.376Z,0.13
2018-12-07T02:57:00.679Z,0.20
2018-12-07T03:00:05.306Z,0.20
2018-12-07T03:03:08.617Z,0.13
2018-12-07T03:06:12.024Z,1.33
2018-12-07T03:09:15.357Z,0.20
2018-12-07T03:12:18.694Z,0.20
2018-12-07T03:15:22.000Z,0.40
2018-12-07T03:18:33.166Z,0.50
2018-12-07T03:21:36.700Z,0.23
2018-12-07T03:24:40.001Z,0.07
2018-12-07T03:27:43.314Z,0.10
2018-12-07T03:30:46.718Z,0.40
2018-12-07T03:33:50.046Z,0.10
2018-12-07T03:36:53.360Z,0.20
2018-12-07T03:39:56.750Z,0.47
2018-12-07T03:43:00.142Z,0.10
2018-12-07T03:46:03.478Z,0.20
2018-12-07T03:49:06.814Z,0.10
2018-12-07T03:52:10.155Z,0.00
2018-12-07T03:55:13.782Z,0.10
2018-12-07T03:58:17.101Z,0.17
2018-12-07T04:01:20.398Z,0.20
2018-12-07T04:04:24.681Z,0.10
2018-12-07T04:07:28.087Z,0.20
2018-12-07T04:10:31.377Z,0.20
2018-12-07T04:13:34.807Z,0.10
2018-12-07T04:16:38.165Z,0.10
2018-12-07T04:19:41.483Z,0.10
2018-12-07T04:22:45.657Z,0.20
2018-12-07T04:25:48.942Z,0.47
2018-12-07T04:32:31.696Z,0.20
2018-12-07T04:35:35.023Z,0.10
2018-12-07T04:38:39.431Z,0.10
2018-12-07T04:41:42.814Z,0.10
2018-12-07T04:44:46.334Z,0.10
2018-12-07T04:47:50.412Z,0.17
2018-12-07T04:50:53.710Z,0.10
2018-12-07T04:53:57.625Z,0.03
2018-12-07T04:57:01.803Z,0.20
2018-12-07T05:00:07.800Z,0.03
2018-12-07T05:03:11.460Z,0.20
2018-12-07T05:06:14.880Z,0.10
2018-12-07T05:09:18.158Z,0.07
2018-12-07T05:12:21.485Z,0.10
2018-12-07T05:15:24.931Z,0.03
2018-12-07T05:18:28.214Z,0.10
2018-12-07T05:21:31.515Z,0.10
2018-12-07T05:24:35.509Z,0.30
2018-12-07T05:27:38.849Z,0.00
2018-12-07T05:30:42.224Z,0.33
2018-12-07T05:33:45.588Z,0.00
2018-12-07T05:36:50.186Z,0.10
2018-12-07T05:39:53.927Z,0.10
2018-12-07T05:42:57.945Z,0.10
2018-12-07T05:46:01.344Z,0.10
2018-12-07T05:49:04.747Z,0.20
2018-12-07T05:52:08.915Z,1.73
2018-12-07T05:55:12.224Z,0.20
2018-12-07T05:58:15.613Z,0.43
2018-12-07T06:01:19.027Z,0.10
2018-12-07T06:04:22.475Z,0.10
2018-12-07T06:07:25.807Z,0.00
2018-12-07T06:10:29.140Z,0.00
2018-12-07T06:13:32.418Z,0.10
2018-12-07T06:16:35.963Z,0.30
2018-12-07T06:19:39.262Z,1.10
2018-12-07T06:22:42.738Z,0.30
2018-12-07T06:25:46.026Z,0.40
2018-12-07T06:28:49.443Z,0.10
2018-12-07T06:31:52.778Z,0.30
2018-12-07T06:34:56.082Z,0.33
2018-12-07T06:37:59.426Z,0.23
2018-12-07T06:41:02.749Z,1.40
2018-12-07T06:44:06.150Z,0.70
2018-12-07T06:47:09.494Z,0.13
2018-12-07T06:50:13.094Z,0.30
2018-12-07T06:53:16.511Z,1.07
2018-12-07T06:56:19.850Z,0.37
2018-12-07T06:59:23.135Z,0.20
2018-12-07T07:02:26.675Z,0.43
2018-12-07T07:05:30.068Z,0.23
2018-12-07T07:08:33.358Z,1.20
2018-12-07T07:11:36.834Z,1.87
2018-12-07T07:14:40.122Z,0.30
2018-12-07T07:17:43.461Z,1.10
2018-12-07T07:20:46.754Z,0.33
2018-12-07T07:23:50.049Z,0.13
2018-12-07T07:26:53.352Z,0.20
2018-12-07T07:29:57.573Z,0.43
2018-12-07T07:33:00.895Z,3.20
2018-12-07T07:36:04.317Z,0.60
2018-12-07T07:39:08.764Z,0.20
2018-12-07T07:42:12.102Z,1.07
2018-12-07T07:45:15.402Z,0.17
2018-12-07T07:48:18.697Z,1.03
2018-12-07T07:51:22.035Z,0.40
2018-12-07T07:54:25.385Z,0.20
2018-12-07T07:57:28.923Z,1.47
2018-12-07T08:00:33.202Z,0.95
2018-12-07T08:03:36.538Z,0.27
2018-12-07T08:06:39.871Z,0.50
2018-12-07T08:09:43.190Z,1.33
2018-12-07T08:12:46.519Z,0.50
2018-12-07T08:15:49.923Z,0.60
2018-12-07T08:18:53.231Z,0.50
2018-12-07T08:21:56.538Z,0.67
2018-12-07T08:24:59.853Z,2.97
2018-12-07T08:28:03.164Z,0.50
2018-12-07T08:31:06.499Z,2.13
2018-12-07T08:34:10.471Z,0.57
2018-12-07T08:37:13.842Z,0.37
2018-12-07T08:40:17.149Z,0.97
2018-12-07T08:43:20.488Z,0.20
2018-12-07T08:46:23.787Z,0.70
2018-12-07T08:49:32.601Z,0.20
2018-12-07T08:52:35.983Z,0.10
2018-12-07T08:55:40.259Z,0.10
2018-12-07T08:58:43.633Z,0.17
2018-12-07T09:01:46.982Z,0.53
2018-12-07T09:04:50.353Z,0.43
2018-12-07T09:07:53.703Z,0.47
2018-12-07T09:10:57.015Z,0.17
2018-12-07T09:14:00.331Z,0.17
2018-12-07T09:17:03.702Z,0.40
2018-12-07T09:20:07.993Z,0.10
2018-12-07T09:23:11.470Z,0.00
2018-12-07T09:26:14.794Z,0.30
2018-12-07T09:29:18.134Z,0.07
2018-12-07T09:32:21.563Z,0.40
2018-12-07T09:35:25.033Z,0.10
2018-12-07T09:38:28.350Z,0.00
2018-12-07T09:41:31.650Z,0.67
2018-12-07T09:44:34.946Z,0.40
2018-12-07T09:47:38.312Z,0.30
2018-12-07T09:50:41.615Z,0.60
2018-12-07T09:53:45.002Z,0.67
2018-12-07T09:56:48.409Z,0.40
2018-12-07T09:59:52.055Z,0.20
2018-12-07T10:02:55.394Z,0.10
2018-12-07T10:05:58.789Z,0.23
2018-12-07T10:09:02.089Z,0.30
2018-12-07T10:12:05.444Z,0.10
2018-12-07T10:15:08.778Z,0.00
2018-12-07T10:18:12.364Z,0.20
2018-12-07T10:21:15.841Z,0.97
2018-12-07T10:24:19.181Z,0.20
2018-12-07T10:27:22.535Z,0.60
2018-12-07T10:30:25.839Z,0.40
2018-12-07T10:33:29.493Z,0.50
2018-12-07T10:36:32.789Z,1.53
2018-12-07T10:39:36.130Z,0.10
2018-12-07T10:42:39.745Z,0.23
2018-12-07T10:45:43.147Z,0.17
2018-12-07T10:48:46.505Z,0.10
2018-12-07T10:51:49.866Z,0.20
2018-12-07T10:54:53.685Z,0.37
2018-12-07T10:57:57.016Z,0.30
2018-12-07T11:01:05.754Z,0.10
2018-12-07T11:04:14.682Z,0.10
2018-12-07T11:11:00.158Z,1.17
2018-12-07T11:14:09.115Z,0.50
2018-12-07T11:17:18.137Z,0.97
2018-12-07T11:20:27.192Z,0.30
2018-12-07T11:23:36.091Z,1.33
2018-12-07T11:26:44.807Z,0.40
2018-12-07T11:33:45.195Z,0.20
2018-12-07T11:36:48.507Z,0.30
2018-12-07T11:39:51.827Z,0.13
2018-12-07T11:42:55.330Z,0.30
2018-12-07T11:45:58.926Z,0.20
2018-12-07T11:52:13.917Z,0.27
2018-12-07T11:55:17.354Z,0.10
2018-12-07T11:58:20.752Z,0.40
2018-12-07T12:01:24.170Z,0.83
2018-12-07T12:04:27.587Z,0.20
2018-12-07T12:07:32.732Z,0.20
2018-12-07T12:10:36.295Z,0.10
2018-12-07T12:13:39.693Z,0.10
2018-12-07T12:16:43.070Z,0.57
2018-12-07T12:19:46.600Z,0.30
2018-12-07T12:22:49.910Z,0.60
2018-12-07T12:25:53.290Z,0.50
2018-12-07T12:28:56.740Z,0.20
2018-12-07T12:32:00.159Z,0.67
2018-12-07T12:35:05.018Z,0.70
2018-12-07T12:38:08.347Z,3.70
2018-12-07T12:41:11.691Z,1.57
2018-12-07T12:44:15.123Z,3.23
2018-12-07T12:47:18.537Z,1.83
2018-12-07T12:50:27.354Z,2.30
2018-12-07T12:53:30.718Z,0.20
2018-12-07T12:56:34.117Z,2.20
2018-12-07T12:59:37.423Z,0.30
2018-12-07T13:02:40.772Z,0.30
2018-12-07T13:05:44.075Z,0.33
2018-12-07T13:08:47.437Z,0.53
2018-12-07T13:11:50.832Z,0.33
2018-12-07T13:14:54.166Z,0.60
2018-12-07T13:17:57.501Z,0.37
2018-12-07T13:21:00.818Z,0.30
2018-12-07T13:24:04.282Z,2.13
2018-12-07T13:27:07.596Z,0.30
2018-12-07T13:30:11.058Z,1.10
2018-12-07T13:33:14.372Z,0.47
2018-12-07T13:36:18.782Z,0.80
2018-12-07T13:39:22.480Z,0.63
2018-12-07T13:42:26.627Z,0.20
2018-12-07T13:45:30.119Z,0.20
2018-12-07T13:48:33.569Z,0.53
2018-12-07T13:51:37.197Z,0.40
2018-12-07T13:55:01.723Z,1.60
2018-12-07T13:58:05.490Z,0.63
2018-12-07T14:01:09.092Z,2.65
2018-12-07T14:04:12.468Z,0.10
2018-12-07T14:07:15.903Z,0.83
2018-12-07T14:10:19.386Z,0.43
2018-12-07T14:13:22.781Z,1.80
2018-12-07T14:16:26.242Z,3.13
2018-12-07T14:19:29.798Z,0.50
2018-12-07T14:22:33.721Z,0.27
2018-12-07T14:25:37.824Z,1.20
2018-12-07T14:28:41.375Z,0.37
2018-12-07T14:31:44.943Z,2.37
2018-12-07T14:34:49.634Z,1.97
2018-12-07T14:37:53.169Z,2.67
2018-12-07T14:40:56.885Z,1.53
2018-12-07T14:44:00.444Z,2.10
2018-12-07T14:47:04.206Z,3.03
2018-12-07T14:50:08.380Z,1.37
2018-12-07T14:53:11.968Z,4.90
2018-12-07T14:56:15.630Z,4.00
2018-12-07T14:59:19.394Z,2.07
2018-12-07T15:02:22.975Z,1.00
2018-12-07T15:05:26.624Z,0.63
2018-12-07T15:08:30.292Z,1.40
2018-12-07T15:11:33.865Z,1.93
2018-12-07T15:14:37.558Z,1.53
2018-12-07T15:17:41.293Z,1.05
2018-12-07T15:20:44.835Z,2.17
2018-12-07T15:23:48.204Z,1.33
2018-12-07T15:26:51.562Z,2.53
2018-12-07T15:29:55.241Z,1.67
2018-12-07T15:32:58.695Z,2.53
2018-12-07T15:36:02.267Z,1.87
2018-12-07T15:39:07.824Z,0.40
2018-12-07T15:42:11.353Z,0.90
2018-12-07T15:45:14.859Z,0.83
2018-12-07T15:48:19.591Z,1.72
2018-12-07T15:51:23.165Z,1.50
2018-12-07T15:54:26.748Z,3.60
2018-12-07T15:57:30.137Z,4.97
2018-12-07T16:00:33.627Z,4.60
2018-12-07T16:03:37.142Z,2.37
2018-12-07T16:06:40.646Z,2.23
2018-12-07T16:09:44.200Z,7.50
2018-12-07T16:12:47.561Z,2.87
2018-12-07T16:15:51.042Z,2.63
2018-12-07T16:18:54.531Z,2.70
2018-12-07T16:21:57.886Z,3.13
2018-12-07T16:25:01.284Z,4.60
2018-12-07T16:28:04.769Z,4.43
2018-12-07T16:31:08.560Z,5.47
2018-12-07T16:34:12.149Z,13.47
2018-12-07T16:37:15.772Z,14.50
2018-12-07T16:40:19.453Z,7.87
2018-12-07T16:43:23.075Z,4.10
2018-12-07T16:46:26.805Z,3.93
2018-12-07T16:49:30.131Z,5.67
2018-12-07T16:52:33.768Z,2.00
2018-12-07T16:55:43.272Z,4.80
2018-12-07T16:58:46.992Z,3.63
2018-12-07T17:01:50.329Z,4.03
2018-12-07T17:04:53.859Z,6.57
2018-12-07T17:07:57.517Z,14.37
2018-12-07T17:11:01.094Z,13.70
2018-12-07T17:14:04.613Z,9.57
2018-12-07T17:17:08.083Z,5.33
2018-12-07T17:20:11.611Z,3.17
2018-12-07T17:23:15.137Z,1.67
2018-12-07T17:26:18.790Z,1.70
2018-12-07T17:29:22.220Z,3.73
2018-12-07T17:32:25.976Z,2.47
2018-12-07T17:35:30.066Z,3.40
2018-12-07T17:38:33.659Z,1.33
2018-12-07T17:41:37.221Z,1.57
2018-12-07T17:44:41.000Z,1.23
2018-12-07T17:47:44.793Z,1.13
2018-12-07T17:50:48.256Z,2.57
2018-12-07T17:53:51.843Z,5.43
2018-12-07T17:56:55.336Z,5.60
2018-12-07T17:59:59.030Z,19.33
2018-12-07T18:03:02.428Z,30.63
2018-12-07T18:06:05.867Z,45.73
2018-12-07T18:09:09.692Z,33.50
2018-12-07T18:12:13.164Z,17.45
2018-12-07T18:15:16.695Z,9.17
2018-12-07T18:18:20.355Z,11.03
2018-12-07T18:21:24.065Z,11.13
2018-12-07T18:24:27.515Z,10.80
2018-12-07T18:27:31.045Z,8.83
2018-12-07T18:30:34.421Z,12.50
2018-12-07T18:33:38.101Z,10.73
2018-12-07T18:36:41.714Z,9.23
2018-12-07T18:39:45.149Z,9.17
2018-12-07T18:42:48.622Z,7.20
2018-12-07T18:45:52.063Z,9.50
2018-12-07T18:48:55.819Z,4.90
2018-12-07T18:51:59.313Z,3.67
2018-12-07T18:55:02.911Z,2.17
2018-12-07T18:58:06.523Z,4.10
2018-12-07T19:01:10.167Z,3.67
2018-12-07T19:04:13.685Z,3.57
2018-12-07T19:07:17.091Z,2.17
2018-12-07T19:10:20.551Z,2.27
2018-12-07T19:13:24.399Z,2.33
2018-12-07T19:16:27.846Z,5.20
2018-12-07T19:19:31.291Z,3.97
2018-12-07T19:22:34.970Z,8.53
2018-12-07T19:25:38.369Z,2.67
2018-12-07T19:31:59.098Z,4.47
2018-12-07T19:35:02.613Z,4.30
2018-12-07T19:38:06.022Z,3.20
2018-12-07T19:41:09.564Z,2.03
2018-12-07T19:44:13.190Z,2.23
2018-12-07T19:47:16.708Z,1.57
2018-12-07T19:50:20.495Z,1.47
2018-12-07T19:53:24.005Z,1.77
2018-12-07T19:56:27.375Z,3.00
2018-12-07T19:59:30.786Z,3.53
2018-12-07T20:02:34.500Z,2.30
2018-12-07T20:05:38.184Z,2.47
2018-12-07T20:08:41.552Z,1.57
2018-12-07T20:11:45.091Z,0.90
2018-12-07T20:14:48.611Z,1.10
2018-12-07T20:17:51.898Z,1.00
2018-12-07T20:20:55.239Z,1.50
2018-12-07T20:23:58.621Z,2.50
2018-12-07T20:27:02.274Z,1.20
2018-12-07T20:30:07.667Z,1.20
2018-12-07T20:33:11.431Z,1.32
2018-12-07T20:36:14.916Z,2.10
2018-12-07T20:39:18.474Z,1.50
2018-12-07T20:42:29.967Z,1.77
2018-12-07T20:45:33.428Z,1.33
2018-12-07T20:48:36.880Z,1.73
2018-12-07T20:51:40.265Z,1.80
2018-12-07T20:54:43.588Z,1.97
2018-12-07T20:57:47.064Z,2.47
2018-12-07T21:00:59.065Z,1.33
2018-12-07T21:07:51.361Z,1.23
2018-12-07T21:14:22.506Z,1.17
2018-12-07T21:17:26.132Z,1.40
2018-12-07T21:20:30.000Z,1.20
2018-12-07T21:23:33.648Z,0.70
2018-12-07T21:26:37.332Z,0.65
2018-12-07T21:29:40.826Z,0.60
2018-12-07T21:32:44.418Z,2.47
2018-12-07T21:35:57.906Z,0.77
2018-12-07T21:39:01.210Z,0.60
2018-12-07T21:42:04.570Z,0.53
2018-12-07T21:45:07.933Z,0.83
2018-12-07T21:48:22.201Z,1.40
2018-12-07T21:51:31.411Z,0.80
2018-12-07T21:54:34.984Z,0.97
2018-12-07T21:57:38.833Z,1.20
2018-12-07T22:00:42.398Z,0.55
2018-12-07T22:03:45.778Z,0.80
2018-12-07T22:06:50.334Z,0.30
2018-12-07T22:09:53.790Z,0.50
2018-12-07T22:12:57.254Z,0.40
2018-12-07T22:16:00.641Z,0.17
2018-12-07T22:19:04.191Z,0.20
2018-12-07T22:22:07.617Z,0.83
2018-12-07T22:25:11.229Z,0.20
2018-12-07T22:28:14.708Z,0.93
2018-12-07T22:31:18.344Z,0.30
2018-12-07T22:34:21.851Z,0.33
2018-12-07T22:37:25.850Z,0.10
2018-12-07T22:40:29.348Z,0.10
2018-12-07T22:43:32.852Z,0.30
2018-12-07T22:46:36.703Z,0.10
2018-12-07T22:49:40.212Z,0.17
2018-12-07T22:52:43.514Z,0.00
2018-12-07T22:55:48.226Z,0.10
2018-12-07T22:58:51.562Z,0.30
2018-12-07T23:01:54.992Z,0.30
2018-12-07T23:04:58.323Z,0.37
2018-12-07T23:08:01.655Z,0.10
2018-12-07T23:11:05.099Z,0.00
2018-12-07T23:14:08.437Z,1.33
2018-12-07T23:17:11.776Z,0.10
2018-12-07T23:20:15.230Z,0.07
2018-12-07T23:23:18.530Z,0.10
2018-12-07T23:26:22.091Z,1.15
2018-12-07T23:29:25.639Z,0.00
2018-12-07T23:32:29.026Z,0.33
2018-12-07T23:35:33.278Z,1.45
2018-12-07T23:38:36.606Z,0.57
2018-12-07T23:41:39.970Z,0.10
2018-12-07T23:44:43.278Z,0.20
2018-12-07T23:47:46.587Z,0.20
2018-12-07T23:50:49.938Z,0.10
2018-12-07T23:53:53.238Z,0.10
2018-12-07T23:56:56.640Z,0.20
